• Join FlightAware (Why Join?)
  • Login
  • US Flag 
01:49PM EST


 

Airport Tracker/Info


-or-


 

Live Flight TrackerFlight Track Log ✈ LOG6856 ✈ 07-Nov-2013 ✈ EGPR / BRR - EGPF / GLA

Flight Track Log - Related Links

Times and Time Zones

All times are in EST time to prevent confusion due to time zone crossing. See the LOG6856 flight status page for this flight to view local times or setup timezone preferences in your user account.

Time Position Orientation Groundspeed Altitude Reporting Facility
EST Latitude Longitude Course Direction KTS MPH feet Rate Location/Type
09:57AM 57.0273 -7.4611 North 1 1 1,300  Level FlightAware UK
09:58AM 57.0381 -7.4580 North 1 1 1,500 960 Climbing FlightAware UK
09:58AM 57.0441 -7.4401 58° Northeast 1 1 1,900 960 Climbing FlightAware UK
09:58AM 57.0438 -7.4182 92° East 1 1 2,100 660 Climbing FlightAware UK
09:58AM 57.0337 -7.4086 152° Southeast 1 1 2,300 660 Climbing FlightAware UK
09:59AM 57.0255 -7.4028 159° South 1 1 2,500 780 Climbing FlightAware UK
09:59AM 57.0175 -7.3953 153° Southeast 1 1 2,800 780 Climbing FlightAware UK
09:59AM 57.0094 -7.3874 152° Southeast 1 1 3,000 480 Climbing FlightAware UK
10:00AM 57.0010 -7.3790 151° Southeast 1 1 3,100 480 Climbing FlightAware UK
10:00AM 56.9920 -7.3730 160° South 1 1 3,300 780 Climbing FlightAware UK
10:00AM 56.9827 -7.3680 164° South 1 1 3,600 780 Climbing FlightAware UK
10:01AM 56.9734 -7.3617 160° South 1 1 3,800 660 Climbing FlightAware UK
10:01AM 56.9613 -7.3501 152° Southeast 1 1 4,100 840 Climbing FlightAware UK
10:01AM 56.9524 -7.3398 148° Southeast 1 1 4,400 960 Climbing FlightAware UK
10:02AM 56.9438 -7.3297 147° Southeast 1 1 4,700 660 Climbing FlightAware UK
10:02AM 56.9358 -7.3169 139° Southeast 1 1 4,800 480 Climbing FlightAware UK
10:02AM 56.9271 -7.3066 147° Southeast 1 1 5,000 780 Climbing FlightAware UK
10:02AM 56.9184 -7.2972 150° Southeast 1 1 5,300 660 Climbing FlightAware UK
10:03AM 56.9093 -7.2886 153° Southeast 1 1 5,400 300 Climbing FlightAware UK
10:03AM 56.8995 -7.2812 158° South 1 1 5,500 480 Climbing FlightAware UK
10:03AM 56.8897 -7.2735 157° South 1 1 5,700 780 Climbing FlightAware UK
10:04AM 56.8796 -7.2661 158° South 1 1 6,000 660 Climbing FlightAware UK
10:04AM 56.8695 -7.2578 156° South 1 1 6,100 660 Climbing FlightAware UK
10:04AM 56.8595 -7.2499 157° South 1 1 6,400 660 Climbing FlightAware UK
10:05AM 56.8495 -7.2419 156° South 1 1 6,500 480 Climbing FlightAware UK
10:05AM 56.8395 -7.2338 156° South 1 1 6,700 660 Climbing FlightAware UK
10:05AM 56.8295 -7.2248 154° Southeast 1 1 6,900 660 Climbing FlightAware UK
10:05AM 56.8194 -7.2161 155° Southeast 1 1 7,100 480 Climbing FlightAware UK
10:06AM 56.8094 -7.2064 152° Southeast 1 1 7,200 660 Climbing FlightAware UK
10:06AM 56.7992 -7.1957 150° Southeast 1 1 7,500 660 Climbing FlightAware UK
10:06AM 56.7890 -7.1850 150° Southeast 1 1 7,600 480 Climbing FlightAware UK
10:07AM 56.7786 -7.1747 151° Southeast 1 1 7,800 780 Climbing FlightAware UK
10:07AM 56.7682 -7.1640 151° Southeast 1 1 8,100 660 Climbing FlightAware UK
10:07AM 56.7573 -7.1535 152° Southeast 1 1 8,200 300 Climbing FlightAware UK
10:08AM 56.7468 -7.1427 151° Southeast 1 1 8,300 480 Climbing FlightAware UK
10:08AM 56.7362 -7.1321 151° Southeast 1 1 8,500 660 Climbing FlightAware UK
10:08AM 56.7252 -7.1224 154° Southeast 1 1 8,700 480 Climbing FlightAware UK
10:08AM 56.7145 -7.1126 153° Southeast 1 1 8,800 480 Climbing FlightAware UK
10:09AM 56.7040 -7.1027 153° Southeast 1 1 9,000 660 Climbing FlightAware UK
10:09AM 56.6934 -7.0930 153° Southeast 1 1 9,200 660 Climbing FlightAware UK
10:09AM 56.6828 -7.0834 153° Southeast 1 1 9,400 480 Climbing FlightAware UK
10:10AM 56.6724 -7.0734 152° Southeast 1 1 9,500 480 Climbing FlightAware UK
10:10AM 56.6623 -7.0620 148° Southeast 1 1 9,700 120 Climbing FlightAware UK
10:10AM 56.6520 -7.0498 147° Southeast 1 1 9,600 -180 Descending FlightAware UK
10:11AM 56.6413 -7.0373 147° Southeast 1 1 9,600 300 Level FlightAware UK
10:11AM 56.6301 -7.0249 149° Southeast 1 1 9,800 480 Climbing FlightAware UK
10:11AM 56.6183 -7.0112 147° Southeast 1 1 9,900 360 Climbing FlightAware UK
10:12AM 56.5990 -6.9897 148° Southeast 1 1 10,100 180 Climbing FlightAware UK
10:12AM 56.5796 -6.9683 149° Southeast 1 1 10,100  Level FlightAware UK
10:13AM 56.5597 -6.9463 149° Southeast 1 1 10,100  Level FlightAware UK
10:13AM 56.5392 -6.9258 151° Southeast 1 1 10,100  Level FlightAware UK
10:14AM 56.5188 -6.9050 151° Southeast 1 1 10,100  Level FlightAware UK
10:14AM 56.4986 -6.8843 151° Southeast 1 1 10,100  Level FlightAware UK
10:15AM 56.4838 -6.8451 124° Southeast 1 1 10,100  Level FlightAware UK
10:15AM 56.4725 -6.7990 114° Southeast 1 1 10,100  Level FlightAware UK
10:16AM 56.4627 -6.7515 110° East 1 1 10,100  Level FlightAware UK
10:16AM 56.4523 -6.7060 112° Southeast 1 1 10,100  Level FlightAware UK
10:17AM 56.4412 -6.6600 113° Southeast 1 1 10,100  Level FlightAware UK
10:17AM 56.4298 -6.6137 114° Southeast 1 1 10,100 -300 Level FlightAware UK
10:17AM 56.4231 -6.5858 113° Southeast 1 1 9,900  Descending FlightAware UK
10:18AM 56.4120 -6.5395 114° Southeast 1 1 10,100 180 Climbing FlightAware UK
10:18AM 56.4012 -6.4938 113° Southeast 1 1 10,100  Level FlightAware UK
10:19AM 56.3896 -6.4486 115° Southeast 1 1 10,100  Level FlightAware UK
10:19AM 56.3784 -6.4027 114° Southeast 1 1 10,100  Level FlightAware UK
10:20AM 56.3684 -6.3551 111° Southeast 1 1 10,100  Level FlightAware UK
10:20AM 56.3583 -6.3073 111° Southeast 1 1 10,100  Level FlightAware UK
10:21AM 56.3474 -6.2607 113° Southeast 1 1 10,100 -300 Level FlightAware UK
10:21AM 56.3403 -6.2331 115° Southeast 1 1 9,900  Descending FlightAware UK
10:22AM 56.3273 -6.1882 118° Southeast 1 1 10,100 -120 Climbing FlightAware UK
10:22AM 56.3169 -6.1525 118° Southeast 1 1 9,800  Descending FlightAware UK
10:23AM 56.3040 -6.1065 117° Southeast 1 1 10,100 300 Climbing FlightAware UK
10:23AM 56.2917 -6.0598 115° Southeast 1 1 10,100  Level FlightAware UK
10:24AM 56.2801 -6.0130 114° Southeast 1 1 10,100  Level FlightAware UK
10:24AM 56.2680 -5.9664 115° Southeast 1 1 10,100  Level FlightAware UK
10:25AM 56.2561 -5.9198 115° Southeast 1 1 10,100  Level FlightAware UK
10:25AM 56.2436 -5.8737 116° Southeast 1 1 10,100  Level FlightAware UK
10:26AM 56.2318 -5.8265 114° Southeast 1 1 10,100  Level FlightAware UK
10:26AM 56.2216 -5.7785 111° Southeast 1 1 10,100 -300 Level FlightAware UK
10:26AM 56.2146 -5.7505 114° Southeast 1 1 9,900  Descending FlightAware UK
10:27AM 56.2036 -5.7040 113° Southeast 1 1 10,100  Climbing FlightAware UK
10:27AM 56.1946 -5.6682 114° Southeast 1 1 9,900 -120 Descending FlightAware UK
10:28AM 56.1841 -5.6255 114° Southeast 1 1 10,000 60 Climbing FlightAware UK
10:28AM 56.1741 -5.5818 112° Southeast 1 1 10,000 -120 Level FlightAware UK
10:29AM 56.1645 -5.5376 111° Southeast 1 1 9,900 -300 Descending FlightAware UK
10:29AM 56.1586 -5.5098 111° Southeast 1 1 9,800 -540 Descending FlightAware UK
10:29AM 56.1520 -5.4825 114° Southeast 1 1 9,600 -540 Descending FlightAware UK
10:30AM 56.1445 -5.4565 117° Southeast 1 1 9,500 -720 Descending FlightAware UK
10:30AM 56.1376 -5.4303 115° Southeast 1 1 9,200 -720 Descending FlightAware UK
10:30AM 56.1309 -5.4046 115° Southeast 1 1 9,100 -720 Descending FlightAware UK
10:31AM 56.1242 -5.3783 115° Southeast 1 1 8,800 -840 Descending FlightAware UK
10:31AM 56.1170 -5.3525 117° Southeast 1 1 8,600 -720 Descending FlightAware UK
10:31AM 56.1121 -5.3247 107° East 1 1 8,400 -720 Descending FlightAware UK
10:32AM 56.1081 -5.2952 104° East 1 1 8,200 -540 Descending FlightAware UK
10:32AM 56.1041 -5.2660 104° East 1 1 8,100 -360 Descending FlightAware UK
10:32AM 56.1002 -5.2367 103° East 1 1 8,000 -540 Descending FlightAware UK
10:32AM 56.0958 -5.2082 105° East 1 1 7,800 -540 Descending FlightAware UK
10:33AM 56.0912 -5.1792 106° East 1 1 7,700 -540 Descending FlightAware UK
10:33AM 56.0867 -5.1499 105° East 1 1 7,500 -360 Descending FlightAware UK
10:33AM 56.0820 -5.1206 106° East 1 1 7,500 -300 Level FlightAware UK
10:34AM 56.0765 -5.0825 105° East 1 1 7,300 -660 Descending FlightAware UK
10:34AM 56.0714 -5.0454 104° East 1 1 7,000 -720 Descending FlightAware UK
10:34AM 56.0666 -5.0171 107° East 1 1 6,800 -720 Descending FlightAware UK
10:35AM 56.0618 -4.9889 107° East 1 1 6,600 -720 Descending FlightAware UK
10:35AM 56.0572 -4.9617 107° East 1 1 6,400 -720 Descending FlightAware UK
10:35AM 56.0506 -4.9257 108° East 1 1 6,100 -480 Descending FlightAware UK
10:36AM 56.0464 -4.8977 105° East 1 1 6,100 -360 Level FlightAware UK
10:36AM 56.0425 -4.8717 105° East 1 1 5,900 -540 Descending FlightAware UK
10:36AM 56.0392 -4.8448 102° East 1 1 5,800 -720 Descending FlightAware UK
10:37AM 56.0355 -4.8172 104° East 1 1 5,500 -540 Descending FlightAware UK
10:37AM 56.0312 -4.7908 106° East 1 1 5,500  Level FlightAware UK
10:37AM 56.0269 -4.7651 107° East 1 1 5,500  Level FlightAware UK
10:38AM 56.0224 -4.7395 108° East 1 1 5,500  Level FlightAware UK
10:38AM 56.0179 -4.7137 107° East 1 1 5,500  Level FlightAware UK
10:38AM 56.0135 -4.6880 107° East 1 1 5,500  Level FlightAware UK
10:38AM 56.0098 -4.6620 104° East 1 1 5,500 -540 Level FlightAware UK
10:39AM 56.0026 -4.6187 107° East 1 1 5,100 -780 Descending FlightAware UK
10:39AM 55.9983 -4.5926 106° East 1 1 4,900 -840 Descending FlightAware UK
10:40AM 55.9941 -4.5667 106° East 1 1 4,600 -840 Descending FlightAware UK
10:40AM 55.9897 -4.5412 107° East 1 1 4,400 -720 Descending FlightAware UK
10:40AM 55.9831 -4.5196 119° Southeast 1 1 4,200 -840 Descending FlightAware UK
10:40AM 55.9756 -4.5003 125° Southeast 1 1 3,900 -840 Descending FlightAware UK
10:41AM 55.9679 -4.4830 128° Southeast 1 1 3,700 -720 Descending FlightAware UK
10:41AM 55.9565 -4.4643 138° Southeast 1 1 3,400 -900 Descending FlightAware UK
10:41AM 55.9483 -4.4507 137° Southeast 1 1 3,100 -840 Descending FlightAware UK
10:42AM 55.9403 -4.4390 141° Southeast 1 1 2,900 -840 Descending FlightAware UK
10:42AM 55.9319 -4.4267 141° Southeast 1 1 2,600 -840 Descending FlightAware UK
10:42AM 55.9234 -4.4159 144° Southeast 1 1 2,400 -840 Descending FlightAware UK
10:43AM 55.9155 -4.4068 147° Southeast 1 1 2,100 -1,200 Descending FlightAware UK
10:43AM 55.9079 -4.3992 151° Southeast 1 1 1,700 -1,380 Descending FlightAware UK
10:43AM 55.9008 -4.3944 159° South 1 1 1,300 -840 Descending FlightAware UK
10:44AM 55.8947 -4.3960 188° South 1 1 1,200 -540 Descending FlightAware UK
10:44AM 55.8900 -4.4007 209° Southwest 1 1 1,000 -720 Descending FlightAware UK
10:44AM 55.8861 -4.4062 218° Southwest 1 1 800 -540 Descending FlightAware UK
10:44AM 55.8827 -4.4133 230° Southwest 1 1 700 -360 Descending FlightAware UK
10:45AM 55.8790 -4.4198 224° Southwest 1 1 600 -120 Descending FlightAware UK
10:45AM 55.8725 -4.4318 226° Southwest 1 1 600  Level FlightAware UK
10:46AM 55.8706 -4.4352 226° Southwest 1 1 600  Level FlightAware UK
10:48AM 55.8719 -4.4331 42° Northeast  Level Estimated